createdAt,value
2023-07-19T00:00:29.763Z,77.44
2023-07-19T00:01:29.805Z,77.24
2023-07-19T00:02:29.919Z,77.03
2023-07-19T00:03:29.754Z,77.14
2023-07-19T00:04:29.713Z,77.03
2023-07-19T00:05:29.683Z,77.03
2023-07-19T00:06:29.728Z,77.03
2023-07-19T00:07:29.705Z,77.14
2023-07-19T00:08:29.693Z,77.14
2023-07-19T00:09:29.638Z,77.03
2023-07-19T00:10:29.654Z,77.03
2023-07-19T00:11:29.619Z,77.14
2023-07-19T00:12:33.838Z,77.24
2023-07-19T00:13:30.626Z,77.24
2023-07-19T00:14:29.607Z,77.24
2023-07-19T00:15:29.610Z,77.14
2023-07-19T00:16:29.605Z,77.24
2023-07-19T00:17:29.606Z,77.24
2023-07-19T00:18:29.606Z,77.34
2023-07-19T00:19:29.540Z,77.34
2023-07-19T00:20:29.568Z,77.24
2023-07-19T00:21:29.513Z,77.34
2023-07-19T00:22:29.540Z,77.44
2023-07-19T00:23:29.494Z,77.78
2023-07-19T00:24:29.528Z,77.88
2023-07-19T00:25:29.466Z,78.08
2023-07-19T00:26:29.537Z,78.39
2023-07-19T00:27:29.444Z,78.59
2023-07-19T00:28:29.483Z,78.93
2023-07-19T00:29:29.408Z,79.03
2023-07-19T00:30:29.438Z,78.83
2023-07-19T00:31:29.462Z,78.63
2023-07-19T00:32:29.406Z,78.42
2023-07-19T00:33:29.453Z,78.33
2023-07-19T00:34:29.446Z,78.02
2023-07-19T00:35:29.367Z,78.02
2023-07-19T00:36:29.413Z,77.61
2023-07-19T00:37:29.327Z,77.61
2023-07-19T00:38:29.354Z,77.61
2023-07-19T00:39:29.345Z,77.61
2023-07-19T00:40:29.315Z,77.72
2023-07-19T00:41:29.275Z,77.82
2023-07-19T00:42:29.294Z,77.92
2023-07-19T00:43:29.265Z,78.02
2023-07-19T00:44:29.311Z,78.06
2023-07-19T00:45:50.435Z,78.26
2023-07-19T00:46:30.220Z,78.26
2023-07-19T00:47:29.274Z,78.36
2023-07-19T00:48:29.200Z,78.46
2023-07-19T00:49:29.250Z,78.77
2023-07-19T00:50:29.178Z,78.87
2023-07-19T00:51:29.194Z,79.07
2023-07-19T00:52:29.191Z,79.27
2023-07-19T00:53:29.179Z,79.47
2023-07-19T00:54:29.142Z,79.61
2023-07-19T00:55:29.154Z,79.82
2023-07-19T00:56:29.131Z,79.82
2023-07-19T00:57:29.137Z,79.78
2023-07-19T00:58:29.098Z,79.68
2023-07-19T00:59:29.141Z,79.58
2023-07-19T01:00:29.085Z,79.58
2023-07-19T01:01:29.098Z,79.47
2023-07-19T01:02:29.258Z,79.47
2023-07-19T01:03:29.107Z,79.27
2023-07-19T01:04:29.016Z,79.27
2023-07-19T01:05:29.054Z,79.07
2023-07-19T01:06:29.057Z,79.07
2023-07-19T01:07:29.034Z,78.97
2023-07-19T01:08:28.987Z,78.63
2023-07-19T01:09:29.000Z,78.63
2023-07-19T01:10:29.006Z,78.53
2023-07-19T01:11:28.973Z,78.33
2023-07-19T01:12:28.962Z,78.42
2023-07-19T01:13:28.961Z,78.53
2023-07-19T01:14:28.926Z,78.77
2023-07-19T01:15:28.964Z,78.87
2023-07-19T01:16:28.941Z,78.66
2023-07-19T01:17:28.933Z,78.53
2023-07-19T01:18:28.910Z,78.33
2023-07-19T01:19:28.916Z,78.22
2023-07-19T01:20:28.850Z,78.12
2023-07-19T01:21:30.493Z,78.02
2023-07-19T01:22:28.885Z,78.12
2023-07-19T01:23:28.881Z,78.02
2023-07-19T01:24:28.842Z,77.92
2023-07-19T01:25:28.836Z,78.02
2023-07-19T01:26:28.805Z,77.92
2023-07-19T01:27:28.818Z,78.02
2023-07-19T01:28:28.804Z,78.22
2023-07-19T01:29:28.809Z,78.42
2023-07-19T01:30:28.776Z,78.73
2023-07-19T01:31:28.843Z,78.87
2023-07-19T01:32:28.727Z,79.17
2023-07-19T01:33:34.063Z,79.51
2023-07-19T01:34:29.721Z,79.92
2023-07-19T01:35:28.736Z,80.32
2023-07-19T01:36:28.700Z,80.66
2023-07-19T01:37:28.707Z,80.87
2023-07-19T01:38:28.674Z,81.07
2023-07-19T01:39:28.689Z,81.18
2023-07-19T01:40:28.678Z,81.18
2023-07-19T01:41:28.676Z,81.38
2023-07-19T01:42:28.628Z,81.58
2023-07-19T01:43:28.635Z,81.78
2023-07-19T01:44:28.642Z,81.88
2023-07-19T01:45:28.655Z,81.88
2023-07-19T01:46:28.580Z,81.68
2023-07-19T01:47:28.655Z,81.68
2023-07-19T01:48:28.559Z,81.62
2023-07-19T01:49:28.588Z,81.52
2023-07-19T01:50:28.534Z,81.48
2023-07-19T01:51:28.564Z,81.38
2023-07-19T01:52:28.510Z,81.18
2023-07-19T01:53:28.549Z,81.07
2023-07-19T01:54:28.510Z,81.07
2023-07-19T01:55:28.494Z,80.77
2023-07-19T01:56:28.464Z,80.57
2023-07-19T01:57:28.488Z,80.46
2023-07-19T01:58:28.465Z,80.36
2023-07-19T01:59:28.471Z,80.26
2023-07-19T02:00:28.455Z,80.26
2023-07-19T02:01:28.528Z,80.36
2023-07-19T02:02:28.692Z,80.46
2023-07-19T02:03:28.469Z,80.46
2023-07-19T02:04:28.453Z,80.46
2023-07-19T02:05:28.429Z,80.57
2023-07-19T02:06:28.355Z,80.66
2023-07-19T02:07:28.380Z,80.46
2023-07-19T02:08:28.384Z,80.46
2023-07-19T02:09:28.346Z,80.46
2023-07-19T02:10:28.315Z,80.46
2023-07-19T02:11:28.353Z,80.46
2023-07-19T02:12:28.335Z,80.46
2023-07-19T02:13:28.312Z,80.36
2023-07-19T02:14:29.229Z,80.46
2023-07-19T02:15:28.308Z,80.46
2023-07-19T02:16:28.340Z,80.46
2023-07-19T02:17:28.320Z,80.57
2023-07-19T02:18:28.246Z,80.57
2023-07-19T02:19:28.251Z,80.57
2023-07-19T02:20:28.237Z,80.77
2023-07-19T02:21:28.213Z,80.87
2023-07-19T02:22:28.216Z,80.97
2023-07-19T02:23:28.230Z,81.18
2023-07-19T02:24:28.180Z,81.18
2023-07-19T02:25:28.170Z,81.18
2023-07-19T02:26:28.141Z,81.27
2023-07-19T02:27:28.170Z,81.27
2023-07-19T02:28:28.105Z,81.18
2023-07-19T02:29:28.157Z,81.18
2023-07-19T02:30:28.115Z,81.31
2023-07-19T02:31:28.196Z,81.41
2023-07-19T02:32:28.119Z,81.48
2023-07-19T02:33:28.096Z,81.27
2023-07-19T02:34:28.062Z,81.27
2023-07-19T02:35:28.111Z,81.18
2023-07-19T02:36:28.022Z,80.97
2023-07-19T02:37:28.045Z,80.87
2023-07-19T02:38:28.004Z,80.97
2023-07-19T02:39:28.073Z,80.97
2023-07-19T02:40:27.996Z,81.07
2023-07-19T02:41:27.985Z,81.18
2023-07-19T02:42:28.007Z,81.18
2023-07-19T02:43:27.988Z,81.38
2023-07-19T02:44:27.928Z,81.38
2023-07-19T02:45:27.983Z,81.18
2023-07-19T02:46:27.979Z,81.48
2023-07-19T02:47:27.973Z,81.68
2023-07-19T02:48:27.908Z,81.58
2023-07-19T02:49:27.930Z,81.48
2023-07-19T02:50:27.961Z,81.27
2023-07-19T02:51:27.890Z,81.18
2023-07-19T02:52:27.865Z,81.27
2023-07-19T02:53:27.858Z,81.27
2023-07-19T02:54:27.860Z,81.07
2023-07-19T02:55:27.845Z,81.07
2023-07-19T02:56:27.834Z,81.07
2023-07-19T02:57:27.862Z,80.87
2023-07-19T02:58:27.778Z,80.77
2023-07-19T02:59:27.817Z,80.77
2023-07-19T03:00:27.834Z,80.97
2023-07-19T03:01:27.834Z,80.87
2023-07-19T03:02:27.869Z,80.77
2023-07-19T03:03:27.952Z,80.77
2023-07-19T03:04:27.722Z,80.63
2023-07-19T03:05:27.746Z,80.63
2023-07-19T03:06:27.698Z,80.63
2023-07-19T03:07:27.757Z,80.53
2023-07-19T03:08:27.717Z,80.53
2023-07-19T03:09:28.629Z,80.63
2023-07-19T03:10:27.687Z,80.63
2023-07-19T03:11:27.646Z,80.73
2023-07-19T03:12:27.667Z,80.73
2023-07-19T03:13:27.670Z,80.83
2023-07-19T03:14:27.670Z,80.87
2023-07-19T03:15:27.599Z,80.97
2023-07-19T03:16:27.657Z,81.07
2023-07-19T03:17:27.618Z,81.07
2023-07-19T03:18:27.598Z,81.18
2023-07-19T03:19:27.585Z,81.18
2023-07-19T03:20:27.570Z,81.18
2023-07-19T03:21:27.573Z,80.97
2023-07-19T03:22:27.727Z,80.77
2023-07-19T03:23:27.529Z,80.57
2023-07-19T03:24:27.557Z,80.46
2023-07-19T03:25:27.494Z,80.46
2023-07-19T03:26:27.528Z,80.36
2023-07-19T03:27:27.540Z,80.36
2023-07-19T03:28:27.481Z,80.36
2023-07-19T03:29:27.466Z,80.46
2023-07-19T03:30:27.512Z,80.40
2023-07-19T03:31:27.478Z,80.50
2023-07-19T03:32:27.478Z,80.60
2023-07-19T03:33:27.415Z,80.71
2023-07-19T03:34:27.413Z,80.91
2023-07-19T03:35:27.383Z,81.01
2023-07-19T03:36:27.436Z,81.11
2023-07-19T03:37:27.519Z,81.21
2023-07-19T03:38:27.406Z,81.21
2023-07-19T03:39:27.336Z,81.21
2023-07-19T03:40:27.355Z,81.21
2023-07-19T03:41:27.325Z,81.31
2023-07-19T03:42:27.359Z,81.31
2023-07-19T03:43:27.334Z,81.31
2023-07-19T03:44:27.311Z,81.21
2023-07-19T03:45:27.299Z,81.31
2023-07-19T03:46:27.380Z,81.52
2023-07-19T03:47:27.310Z,81.38
2023-07-19T03:48:27.279Z,81.38
2023-07-19T03:49:27.299Z,81.38
2023-07-19T03:50:27.265Z,81.27
2023-07-19T03:51:27.218Z,81.18
2023-07-19T03:52:27.245Z,80.97
2023-07-19T03:53:27.200Z,80.83
2023-07-19T03:54:27.253Z,80.83
2023-07-19T03:55:27.192Z,80.93
2023-07-19T03:56:27.187Z,81.04
2023-07-19T03:57:27.155Z,80.93
2023-07-19T03:58:27.175Z,81.04
2023-07-19T03:59:27.121Z,81.04
2023-07-19T04:00:28.107Z,81.04
2023-07-19T04:01:28.156Z,80.93
2023-07-19T04:02:27.148Z,81.04
2023-07-19T04:03:27.091Z,81.04
2023-07-19T04:04:27.297Z,80.93
2023-07-19T04:05:27.087Z,80.69
2023-07-19T04:06:27.088Z,80.39
2023-07-19T04:07:27.042Z,80.39
2023-07-19T04:08:27.102Z,80.39
2023-07-19T04:09:27.062Z,80.39
2023-07-19T04:10:27.055Z,80.29
2023-07-19T04:11:27.020Z,80.19
2023-07-19T04:12:27.022Z,79.98
2023-07-19T04:13:27.010Z,79.88
2023-07-19T04:14:27.009Z,79.88
2023-07-19T04:15:26.950Z,79.78
2023-07-19T04:16:27.030Z,79.64
2023-07-19T04:17:26.954Z,79.20
2023-07-19T04:18:26.947Z,79.24
2023-07-19T04:19:27.741Z,79.10
2023-07-19T04:20:26.922Z,79.10
2023-07-19T04:21:26.921Z,79.00
2023-07-19T04:22:26.906Z,78.89
2023-07-19T04:23:26.868Z,79.00
2023-07-19T04:24:26.916Z,78.75
2023-07-19T04:25:26.860Z,76.82
2023-07-19T04:26:26.878Z,74.77
2023-07-19T04:27:26.852Z,74.70
2023-07-19T04:28:26.838Z,75.45
2023-07-19T04:29:26.823Z,75.95
2023-07-19T04:30:26.854Z,76.50
2023-07-19T04:31:26.783Z,76.70
2023-07-19T04:32:26.836Z,76.79
2023-07-19T04:33:26.831Z,76.26
2023-07-19T04:34:26.775Z,73.69
2023-07-19T04:35:26.784Z,71.50
2023-07-19T04:36:26.748Z,71.33
2023-07-19T04:37:26.764Z,71.33
2023-07-19T04:38:26.736Z,71.97
2023-07-19T04:39:26.701Z,72.71
2023-07-19T04:40:26.744Z,73.46
2023-07-19T04:41:26.673Z,73.11
2023-07-19T04:42:26.712Z,71.94
2023-07-19T04:43:26.642Z,71.53
2023-07-19T04:44:26.647Z,71.97
2023-07-19T04:45:26.644Z,73.25
2023-07-19T04:46:26.727Z,74.06
2023-07-19T04:47:26.680Z,74.22
2023-07-19T04:48:27.868Z,72.04
2023-07-19T04:49:26.583Z,70.22
2023-07-19T04:50:26.620Z,68.88
2023-07-19T04:51:26.599Z,68.55
2023-07-19T04:52:26.579Z,67.41
2023-07-19T04:53:26.610Z,65.84
2023-07-19T04:54:26.589Z,64.57
2023-07-19T04:55:26.520Z,62.44
2023-07-19T04:56:26.594Z,60.38
2023-07-19T04:57:26.516Z,60.08
2023-07-19T04:58:26.496Z,59.98
2023-07-19T04:59:26.479Z,59.78
2023-07-19T05:00:26.488Z,59.35
2023-07-19T05:01:26.599Z,59.12
2023-07-19T05:02:26.491Z,57.24
2023-07-19T05:03:26.427Z,55.79
2023-07-19T05:04:26.443Z,54.86
2023-07-19T05:05:26.468Z,55.29
2023-07-19T05:06:26.506Z,56.87
2023-07-19T05:07:26.401Z,58.62
2023-07-19T05:08:26.402Z,59.05
2023-07-19T05:09:26.363Z,60.11
2023-07-19T05:10:26.417Z,61.47
2023-07-19T05:11:26.422Z,62.30
2023-07-19T05:12:26.383Z,63.36
2023-07-19T05:13:26.362Z,64.70
2023-07-19T05:14:26.337Z,65.84
2023-07-19T05:15:26.294Z,66.47
2023-07-19T05:16:26.372Z,67.00
2023-07-19T05:17:26.343Z,67.51
2023-07-19T05:18:26.342Z,68.04
2023-07-19T05:19:26.266Z,68.58
2023-07-19T05:20:26.295Z,69.18
2023-07-19T05:21:26.254Z,69.49
2023-07-19T05:22:26.275Z,69.62
2023-07-19T05:23:26.231Z,69.79
2023-07-19T05:24:26.283Z,69.79
2023-07-19T05:25:26.208Z,69.89
2023-07-19T05:26:26.256Z,69.69
2023-07-19T05:27:26.189Z,69.69
2023-07-19T05:28:26.217Z,69.65
2023-07-19T05:29:26.178Z,69.65
2023-07-19T05:30:26.194Z,69.65
2023-07-19T05:31:26.178Z,69.45
2023-07-19T05:32:26.170Z,69.32
2023-07-19T05:33:26.124Z,69.42
2023-07-19T05:34:26.267Z,69.32
2023-07-19T05:35:26.126Z,69.52
2023-07-19T05:36:26.108Z,69.72
2023-07-19T05:37:26.107Z,69.92
2023-07-19T05:38:26.105Z,69.62
2023-07-19T05:39:26.081Z,69.82
2023-07-19T05:40:26.082Z,70.16
2023-07-19T05:41:26.031Z,70.26
2023-07-19T05:42:26.062Z,70.36
2023-07-19T05:43:26.027Z,70.26
2023-07-19T05:44:26.968Z,70.36
2023-07-19T05:45:26.005Z,70.66
2023-07-19T05:46:26.037Z,70.66
2023-07-19T05:47:26.002Z,70.76
2023-07-19T05:48:25.982Z,70.76
2023-07-19T05:49:25.950Z,70.76
2023-07-19T05:50:25.967Z,70.86
2023-07-19T05:51:25.928Z,70.76
2023-07-19T05:52:25.927Z,70.63
2023-07-19T05:53:25.948Z,70.56
2023-07-19T05:54:25.919Z,70.43
2023-07-19T05:55:25.881Z,70.53
2023-07-19T05:56:25.881Z,70.66
2023-07-19T05:57:25.887Z,70.86
2023-07-19T05:58:25.882Z,70.76
2023-07-19T05:59:25.839Z,70.56
2023-07-19T06:00:26.145Z,70.56
2023-07-19T06:01:29.829Z,70.36
2023-07-19T06:02:39.247Z,70.16
2023-07-19T06:03:27.068Z,70.36
2023-07-19T06:04:25.987Z,70.66
2023-07-19T06:05:25.934Z,70.43
2023-07-19T06:06:25.810Z,70.43
2023-07-19T06:07:25.754Z,70.32
2023-07-19T06:08:26.198Z,70.23
2023-07-19T06:09:25.718Z,70.32
2023-07-19T06:10:25.741Z,70.73
2023-07-19T06:11:25.758Z,70.73
2023-07-19T06:12:25.721Z,70.53
2023-07-19T06:13:25.686Z,70.63
2023-07-19T06:14:25.708Z,70.73
2023-07-19T06:15:25.665Z,70.93
2023-07-19T06:16:25.833Z,71.13
2023-07-19T06:17:25.732Z,70.83
2023-07-19T06:18:25.725Z,70.83
2023-07-19T06:19:25.618Z,70.70
2023-07-19T06:20:25.624Z,70.79
2023-07-19T06:21:25.586Z,70.79
2023-07-19T06:22:25.614Z,70.59
2023-07-19T06:23:25.874Z,70.06
2023-07-19T06:24:25.623Z,69.56
2023-07-19T06:25:25.547Z,69.12
2023-07-19T06:26:25.565Z,68.72
2023-07-19T06:27:25.571Z,68.68
2023-07-19T06:28:25.572Z,68.08
2023-07-19T06:29:25.647Z,68.32
2023-07-19T06:30:25.584Z,68.92
2023-07-19T06:31:25.740Z,68.72
2023-07-19T06:32:25.536Z,68.59
2023-07-19T06:33:27.920Z,68.49
2023-07-19T06:34:25.487Z,68.29
2023-07-19T06:35:25.433Z,69.12
2023-07-19T06:36:25.474Z,69.32
2023-07-19T06:37:25.474Z,68.79
2023-07-19T06:38:25.465Z,68.29
2023-07-19T06:39:25.398Z,67.75
2023-07-19T06:40:25.502Z,67.35
2023-07-19T06:41:25.401Z,67.14
2023-07-19T06:42:28.458Z,67.05
2023-07-19T06:43:25.356Z,66.82
2023-07-19T06:44:25.382Z,67.11
2023-07-19T06:45:25.356Z,66.91
2023-07-19T06:46:25.438Z,66.58
2023-07-19T06:47:25.339Z,66.48
2023-07-19T06:48:25.331Z,66.58
2023-07-19T06:49:25.305Z,67.11
2023-07-19T06:50:25.325Z,67.42
2023-07-19T06:51:25.283Z,67.82
2023-07-19T06:52:28.712Z,67.92
2023-07-19T06:53:25.252Z,67.95
2023-07-19T06:54:25.314Z,68.15
2023-07-19T06:55:25.238Z,68.25
2023-07-19T06:56:25.262Z,68.25
2023-07-19T06:57:25.227Z,67.95
2023-07-19T06:58:25.219Z,67.95
2023-07-19T06:59:25.219Z,67.22
2023-07-19T07:00:25.306Z,67.11
2023-07-19T07:01:25.270Z,67.11
2023-07-19T07:02:25.202Z,67.22
2023-07-19T07:03:25.361Z,67.72
2023-07-19T07:04:25.223Z,67.38
2023-07-19T07:05:25.153Z,66.99
2023-07-19T07:06:25.188Z,67.08
2023-07-19T07:07:25.133Z,66.88
2023-07-19T07:08:25.143Z,66.65
2023-07-19T07:09:25.091Z,67.25
2023-07-19T07:10:25.096Z,67.05
2023-07-19T07:11:25.057Z,67.15
2023-07-19T07:12:25.097Z,66.75
2023-07-19T07:13:25.053Z,67.32
2023-07-19T07:14:25.140Z,67.22
2023-07-19T07:15:25.012Z,67.12
2023-07-19T07:16:25.101Z,67.22
2023-07-19T07:17:25.000Z,67.02
2023-07-19T07:18:25.027Z,66.62
2023-07-19T07:19:24.963Z,66.32
2023-07-19T07:20:25.054Z,66.42
2023-07-19T07:21:24.966Z,66.32
2023-07-19T07:22:24.950Z,66.09
2023-07-19T07:23:24.937Z,65.89
2023-07-19T07:24:24.944Z,66.49
2023-07-19T07:25:24.958Z,66.69
2023-07-19T07:26:25.607Z,66.59
2023-07-19T07:27:24.944Z,65.55
2023-07-19T07:28:24.893Z,65.25
2023-07-19T07:29:24.873Z,65.36
2023-07-19T07:30:24.856Z,65.02
2023-07-19T07:31:25.072Z,64.83
2023-07-19T07:32:24.850Z,65.02
2023-07-19T07:33:24.850Z,64.59
2023-07-19T07:34:24.833Z,64.49
2023-07-19T07:35:24.819Z,64.69
2023-07-19T07:36:24.802Z,64.59
2023-07-19T07:37:24.841Z,65.06
2023-07-19T07:38:24.811Z,65.29
2023-07-19T07:39:24.793Z,64.89
2023-07-19T07:40:24.811Z,64.59
2023-07-19T07:41:24.922Z,64.39
2023-07-19T07:42:24.716Z,64.49
2023-07-19T07:43:24.728Z,64.46
2023-07-19T07:44:24.728Z,60.79
2023-07-19T07:45:24.723Z,59.09
2023-07-19T07:46:24.712Z,58.89
2023-07-19T07:47:24.779Z,58.00
2023-07-19T07:48:24.645Z,57.79
2023-07-19T07:49:24.653Z,57.50
2023-07-19T07:50:24.732Z,57.09
2023-07-19T07:51:24.710Z,57.39
2023-07-19T07:52:24.634Z,57.69
2023-07-19T07:53:24.632Z,57.69
2023-07-19T07:54:24.593Z,57.09
2023-07-19T07:55:24.633Z,57.29
2023-07-19T07:56:24.599Z,57.59
2023-07-19T07:57:24.615Z,57.59
2023-07-19T07:58:24.570Z,57.39
2023-07-19T07:59:24.582Z,57.22
2023-07-19T08:00:24.546Z,57.32
2023-07-19T08:01:24.971Z,57.22
2023-07-19T08:02:24.556Z,57.42
2023-07-19T08:03:24.686Z,57.52
2023-07-19T08:04:25.646Z,57.72
2023-07-19T08:05:24.532Z,58.02
2023-07-19T08:06:24.517Z,58.22
2023-07-19T08:07:24.506Z,58.32
2023-07-19T08:08:24.486Z,58.52
2023-07-19T08:09:24.455Z,58.32
2023-07-19T08:10:24.498Z,57.72
2023-07-19T08:11:24.476Z,57.82
2023-07-19T08:12:24.456Z,57.62
2023-07-19T08:13:24.415Z,57.32
2023-07-19T08:14:24.374Z,57.42
2023-07-19T08:15:24.413Z,57.62
2023-07-19T08:16:24.408Z,57.62
2023-07-19T08:17:24.449Z,57.72
2023-07-19T08:18:24.346Z,57.62
2023-07-19T08:19:24.391Z,57.69
2023-07-19T08:20:24.307Z,57.79
2023-07-19T08:21:35.273Z,58.00
2023-07-19T08:22:25.511Z,57.19
2023-07-19T08:23:24.345Z,57.32
2023-07-19T08:24:24.277Z,56.99
2023-07-19T08:25:27.861Z,56.49
2023-07-19T08:26:24.243Z,56.70
2023-07-19T08:27:24.288Z,56.29
2023-07-19T08:28:24.240Z,56.20
2023-07-19T08:29:24.293Z,56.16
2023-07-19T08:30:25.557Z,55.97
2023-07-19T08:31:24.539Z,56.16
2023-07-19T08:32:24.238Z,56.16
2023-07-19T08:33:24.216Z,56.27
2023-07-19T08:34:24.190Z,56.27
2023-07-19T08:35:24.217Z,56.20
2023-07-19T08:36:24.215Z,56.29
2023-07-19T08:37:24.160Z,56.39
2023-07-19T08:38:24.118Z,55.89
2023-07-19T08:39:24.142Z,56.12
2023-07-19T08:40:24.084Z,56.62
2023-07-19T08:41:24.609Z,56.52
2023-07-19T08:42:24.094Z,56.74
2023-07-19T08:43:24.115Z,56.74
2023-07-19T08:44:24.099Z,56.24
2023-07-19T08:45:24.069Z,57.55
2023-07-19T08:46:24.162Z,58.37
2023-07-19T08:47:24.117Z,59.20
2023-07-19T08:48:24.026Z,59.91
2023-07-19T08:49:24.053Z,60.74
2023-07-19T08:50:24.007Z,61.34
2023-07-19T08:51:24.369Z,62.44
2023-07-19T08:52:23.996Z,62.94
2023-07-19T08:53:23.983Z,63.47
2023-07-19T08:54:23.952Z,64.78
2023-07-19T08:55:23.958Z,65.28
2023-07-19T08:56:23.928Z,65.81
2023-07-19T08:57:23.963Z,66.31
2023-07-19T08:58:23.889Z,67.52
2023-07-19T08:59:23.908Z,68.45
2023-07-19T09:00:23.888Z,68.76
2023-07-19T09:01:24.212Z,69.46
2023-07-19T09:02:23.941Z,69.99
2023-07-19T09:03:23.883Z,70.70
2023-07-19T09:04:23.932Z,71.20
2023-07-19T09:05:23.875Z,71.20
2023-07-19T09:06:23.903Z,71.40
2023-07-19T09:07:23.864Z,71.53
2023-07-19T09:08:23.830Z,71.63
2023-07-19T09:09:23.809Z,71.23
2023-07-19T09:10:23.784Z,70.76
2023-07-19T09:11:24.087Z,71.26
2023-07-19T09:12:23.761Z,71.87
2023-07-19T09:13:23.873Z,71.56
2023-07-19T09:14:23.724Z,72.17
2023-07-19T09:15:23.750Z,71.77
2023-07-19T09:16:23.729Z,72.30
2023-07-19T09:17:23.785Z,72.30
2023-07-19T09:18:23.780Z,72.41
2023-07-19T09:19:23.694Z,72.41
2023-07-19T09:20:23.684Z,72.50
2023-07-19T09:21:24.083Z,72.81
2023-07-19T09:22:24.601Z,73.14
2023-07-19T09:23:23.696Z,72.84
2023-07-19T09:24:23.613Z,73.14
2023-07-19T09:25:24.349Z,73.35
2023-07-19T09:26:23.597Z,73.35
2023-07-19T09:27:23.665Z,73.14
2023-07-19T09:28:23.654Z,73.24
2023-07-19T09:29:24.573Z,73.14
2023-07-19T09:30:23.557Z,72.94
2023-07-19T09:31:25.891Z,72.30
2023-07-19T09:32:23.562Z,72.91
2023-07-19T09:33:23.610Z,72.71
2023-07-19T09:34:23.523Z,72.24
2023-07-19T09:35:23.552Z,72.34
2023-07-19T09:36:23.904Z,72.30
2023-07-19T09:37:23.506Z,72.20
2023-07-19T09:38:23.518Z,72.30
2023-07-19T09:39:23.576Z,72.00
2023-07-19T09:40:23.451Z,71.90
2023-07-19T09:41:24.064Z,72.00
2023-07-19T09:42:23.415Z,71.90
2023-07-19T09:43:23.456Z,71.60
2023-07-19T09:44:23.432Z,71.56
2023-07-19T09:45:23.413Z,71.36
2023-07-19T09:46:23.701Z,72.17
2023-07-19T09:47:29.668Z,72.37
2023-07-19T09:48:24.391Z,73.11
2023-07-19T09:49:23.361Z,73.41
2023-07-19T09:50:23.399Z,74.01
2023-07-19T09:51:23.356Z,74.32
2023-07-19T09:52:23.314Z,75.15
2023-07-19T09:53:23.315Z,76.06
2023-07-19T09:54:23.301Z,76.97
2023-07-19T09:55:23.346Z,77.81
2023-07-19T09:56:23.583Z,78.51
2023-07-19T09:57:23.404Z,79.42
2023-07-19T09:58:23.258Z,80.06
2023-07-19T09:59:23.274Z,80.66
2023-07-19T10:00:23.245Z,80.97
2023-07-19T10:01:23.302Z,81.37
2023-07-19T10:02:23.259Z,81.57
2023-07-19T10:03:23.712Z,81.98
2023-07-19T10:04:23.197Z,81.67
2023-07-19T10:05:23.227Z,82.07
2023-07-19T10:06:23.410Z,82.42
2023-07-19T10:07:23.694Z,82.51
2023-07-19T10:08:23.150Z,82.21
2023-07-19T10:09:23.210Z,82.82
2023-07-19T10:10:23.138Z,82.82
2023-07-19T10:11:23.140Z,83.22
2023-07-19T10:12:23.103Z,82.82
2023-07-19T10:13:23.144Z,83.22
2023-07-19T10:14:33.709Z,83.22
2023-07-19T10:15:24.117Z,82.51
2023-07-19T10:16:23.533Z,82.42
2023-07-19T10:17:23.125Z,82.82
2023-07-19T10:18:23.064Z,82.71
2023-07-19T10:19:23.054Z,82.68
2023-07-19T10:20:23.046Z,82.31
2023-07-19T10:21:23.032Z,82.62
2023-07-19T10:22:23.000Z,82.51
2023-07-19T10:23:23.021Z,82.51
2023-07-19T10:24:22.985Z,83.02
2023-07-19T10:25:23.031Z,82.21
2023-07-19T10:26:23.934Z,83.16
2023-07-19T10:27:22.966Z,82.76
2023-07-19T10:28:22.915Z,82.65
2023-07-19T10:29:22.951Z,82.71
2023-07-19T10:30:22.900Z,82.86
2023-07-19T10:31:29.054Z,83.12
2023-07-19T10:32:23.889Z,83.32
2023-07-19T10:33:23.100Z,83.32
2023-07-19T10:34:27.868Z,83.22
2023-07-19T10:35:23.867Z,82.92
2023-07-19T10:36:23.281Z,82.38
2023-07-19T10:37:22.844Z,82.28
2023-07-19T10:38:22.803Z,82.58
2023-07-19T10:39:22.888Z,82.48
2023-07-19T10:40:22.807Z,82.18
2023-07-19T10:41:22.828Z,82.38
2023-07-19T10:42:22.821Z,81.77
2023-07-19T10:43:34.966Z,82.04
2023-07-19T10:44:23.751Z,82.14
2023-07-19T10:45:22.769Z,81.63
2023-07-19T10:46:23.283Z,81.93
2023-07-19T10:47:22.764Z,82.74
2023-07-19T10:48:22.694Z,82.04
2023-07-19T10:49:22.759Z,81.53
2023-07-19T10:50:22.683Z,81.03
2023-07-19T10:51:23.082Z,81.13
2023-07-19T10:52:22.667Z,81.53
2023-07-19T10:53:22.716Z,81.39
2023-07-19T10:54:23.429Z,81.39
2023-07-19T10:56:22.806Z,80.89
2023-07-19T10:57:22.647Z,80.69
2023-07-19T10:58:22.620Z,80.49
2023-07-19T10:59:24.667Z,80.79
2023-07-19T11:00:22.618Z,80.99
2023-07-19T11:01:23.115Z,81.39
2023-07-19T11:02:22.578Z,81.70
2023-07-19T11:03:22.735Z,81.79
2023-07-19T11:04:22.542Z,81.49
2023-07-19T11:05:22.556Z,81.09
2023-07-19T11:06:22.540Z,80.99
2023-07-19T11:07:22.536Z,81.29
2023-07-19T11:08:22.512Z,81.46
2023-07-19T11:09:22.549Z,81.85
2023-07-19T11:10:22.485Z,81.46
2023-07-19T11:11:22.862Z,81.46
2023-07-19T11:12:22.465Z,80.95
2023-07-19T11:13:24.789Z,81.05
2023-07-19T11:14:22.449Z,81.05
2023-07-19T11:15:22.427Z,81.15
2023-07-19T11:16:22.448Z,81.35
2023-07-19T11:17:22.471Z,81.46
2023-07-19T11:18:22.426Z,80.95
2023-07-19T11:19:22.409Z,81.26
2023-07-19T11:20:22.365Z,81.15
2023-07-19T11:21:22.692Z,80.45
2023-07-19T11:22:22.333Z,80.35
2023-07-19T11:23:22.383Z,81.05
2023-07-19T11:24:22.394Z,81.85
2023-07-19T11:25:22.340Z,81.26
2023-07-19T11:26:22.289Z,81.15
2023-07-19T11:27:22.322Z,81.35
2023-07-19T11:28:22.288Z,81.26
2023-07-19T11:29:22.301Z,81.26
2023-07-19T11:30:22.269Z,81.15
2023-07-19T11:31:22.539Z,80.95
2023-07-19T11:32:22.354Z,81.26
2023-07-19T11:33:22.246Z,82.16
2023-07-19T11:34:22.210Z,81.26
2023-07-19T11:35:22.274Z,81.15
2023-07-19T11:36:22.213Z,80.45
2023-07-19T11:37:22.198Z,80.25
2023-07-19T11:38:22.178Z,80.15
2023-07-19T11:39:22.204Z,80.25
2023-07-19T11:40:22.186Z,80.05
2023-07-19T11:41:22.484Z,79.91
2023-07-19T11:42:22.140Z,79.71
2023-07-19T11:43:22.108Z,79.41
2023-07-19T11:44:22.149Z,79.50
2023-07-19T11:45:22.337Z,79.71
2023-07-19T11:46:22.184Z,80.41
2023-07-19T11:47:22.074Z,79.97
2023-07-19T11:48:22.070Z,79.37
2023-07-19T11:49:22.064Z,79.67
2023-07-19T11:50:23.027Z,79.87
2023-07-19T11:51:22.304Z,79.57
2023-07-19T11:52:22.048Z,79.17
2023-07-19T11:53:21.993Z,79.37
2023-07-19T11:54:22.014Z,78.27
2023-07-19T11:55:22.042Z,78.16
2023-07-19T11:56:22.010Z,78.77
2023-07-19T11:57:21.962Z,78.77
2023-07-19T11:58:31.516Z,79.10
2023-07-19T11:59:22.932Z,79.10
2023-07-19T12:00:21.976Z,78.80
2023-07-19T12:01:21.996Z,78.90
2023-07-19T12:02:21.952Z,79.10
2023-07-19T12:03:21.983Z,79.10
2023-07-19T12:04:21.916Z,78.70
2023-07-19T12:05:21.883Z,78.70
2023-07-19T12:06:22.151Z,79.30
2023-07-19T12:07:21.838Z,80.21
2023-07-19T12:08:21.887Z,80.01
2023-07-19T12:09:21.875Z,79.30
2023-07-19T12:10:21.879Z,79.00
2023-07-19T12:11:21.823Z,79.10
2023-07-19T12:12:21.822Z,79.41
2023-07-19T12:13:21.770Z,79.81
2023-07-19T12:14:21.801Z,79.21
2023-07-19T12:15:21.793Z,79.00
2023-07-19T12:16:22.057Z,79.71
2023-07-19T12:17:21.784Z,79.81
2023-07-19T12:18:21.773Z,80.21
2023-07-19T12:19:21.711Z,80.31
2023-07-19T12:20:21.721Z,80.21
2023-07-19T12:21:21.941Z,80.31
2023-07-19T12:22:21.755Z,81.27
2023-07-19T12:23:33.749Z,81.38
2023-07-19T12:24:22.721Z,81.38
2023-07-19T12:25:21.638Z,81.38
2023-07-19T12:26:32.361Z,80.17
2023-07-19T12:27:22.630Z,79.27
2023-07-19T12:28:21.642Z,79.27
2023-07-19T12:29:21.621Z,79.77
2023-07-19T12:30:21.664Z,79.57
2023-07-19T12:31:21.638Z,79.57
2023-07-19T12:32:21.715Z,79.73
2023-07-19T12:33:21.558Z,79.73
2023-07-19T12:34:21.619Z,79.73
2023-07-19T12:35:21.542Z,79.17
2023-07-19T12:36:21.921Z,79.67
2023-07-19T12:37:21.524Z,80.07
2023-07-19T12:38:21.792Z,80.24
2023-07-19T12:39:21.553Z,80.04
2023-07-19T12:40:21.496Z,79.53
2023-07-19T12:41:21.463Z,79.33
2023-07-19T12:42:21.518Z,79.33
2023-07-19T12:43:21.468Z,79.53
2023-07-19T12:44:21.795Z,80.24
2023-07-19T12:45:21.431Z,79.69
2023-07-19T12:46:21.747Z,79.09
2023-07-19T12:47:21.418Z,79.09
2023-07-19T12:48:21.461Z,78.09
2023-07-19T12:49:21.378Z,77.89
2023-07-19T12:50:21.421Z,78.19
2023-07-19T12:51:21.396Z,77.48
2023-07-19T12:52:21.396Z,77.59
2023-07-19T12:53:21.349Z,77.65